Terminal Aerodrome Forecast
Issued by NWS

Home | Current Version | Previous Version | Graphics & Text | Print | Product List | Glossary On
Versions: 1 2 3 4 5 6 7 8 9 10 11 12 13 14 15 16 17 18 19 20 21
000
FTUS43 KMPX 301700
TAFRWF
TAF
KRWF 301724Z 3018/0118 11011G16KT P6SM OVC010
      TEMPO 3018/3021 SCT010 BKN080
     FM302100 14015G20KT P6SM VCSH BKN015 OVC030
      TEMPO 3021/3023 6SM SHRA BR OVC012
     FM010400 15012KT 6SM BR OVC009
     FM010800 15009KT 2SM BR OVC003
     FM011600 20008KT P6SM OVC007=

USA.gov is the U.S. government's official web portal to all federal, state and local government web resources and services.